Time;durP1;ratioP1;P1;durP2;ratioP2;P2;SDS_P1;SDS_P2;PMS_P1;PMS_P2;Temp;Humidity;BMP_temperature;BMP_pressure;BME280_temperature;BME280_humidity;BME280_pressure;Samples;Min_cycle;Max_cycle;Signal;HPM_P1;HPM_P2
2022/03/20 00:00:37;;;;;;;;;6.25;4.25;;;;;;;;5073199;28;47067;-76
2022/03/20 00:03:04;;;;;;;;;6.25;5.75;;;;;;;;5072830;28;45335;-75
2022/03/20 00:05:29;;;;;;;;;3.00;1.75;;;;;;;;5073140;28;45454;-78
2022/03/20 00:07:54;;;;;;;;;5.00;4.00;;;;;;;;5075688;28;45388;-76
2022/03/20 00:10:20;;;;;;;;;4.00;3.75;;;;;;;;5076937;28;45453;-77
2022/03/20 00:12:45;;;;;;;;;4.25;3.00;;;;;;;;5073140;28;45474;-77
2022/03/20 00:15:10;;;;;;;;;5.00;5.00;;;;;;;;5073332;28;45471;-77
2022/03/20 00:17:36;;;;;;;;;5.00;5.00;;;;;;;;5072420;28;45626;-75
2022/03/20 00:20:02;;;;;;;;;4.75;4.75;;;;;;;;5074498;28;46480;-75
2022/03/20 00:22:27;;;;;;;;;7.00;6.00;;;;;;;;5077971;28;45358;-75
2022/03/20 00:24:52;;;;;;;;;9.00;7.00;;;;;;;;5075938;28;45435;-74
2022/03/20 00:27:18;;;;;;;;;9.75;6.00;;;;;;;;5072864;28;45468;-76
2022/03/20 00:29:44;;;;;;;;;7.25;4.75;;;;;;;;5071910;28;45671;-77
2022/03/20 00:32:14;;;;;;;;;4.00;4.00;;;;;;;;5073177;28;45488;-76
2022/03/20 00:34:40;;;;;;;;;5.00;5.00;;;;;;;;5074533;28;45483;-74
2022/03/20 00:37:06;;;;;;;;;3.25;3.25;;;;;;;;5076364;28;45315;-77
2022/03/20 00:39:31;;;;;;;;;2.25;2.25;;;;;;;;5074380;28;47512;-74
2022/03/20 00:41:57;;;;;;;;;3.00;3.00;;;;;;;;5073519;28;45509;-76
2022/03/20 00:44:22;;;;;;;;;2.75;2.75;;;;;;;;5073872;28;45324;-75
2022/03/20 00:46:48;;;;;;;;;3.75;2.75;;;;;;;;5074515;28;45506;-75
2022/03/20 00:49:14;;;;;;;;;2.00;2.00;;;;;;;;5058513;28;47061;-76
2022/03/20 00:51:39;;;;;;;;;3.50;3.50;;;;;;;;5074085;28;45420;-74
2022/03/20 00:54:04;;;;;;;;;5.25;4.25;;;;;;;;5074340;28;45300;-75
2022/03/20 00:56:30;;;;;;;;;4.25;3.00;;;;;;;;5074451;28;45494;-75
2022/03/20 00:58:55;;;;;;;;;2.50;2.50;;;;;;;;5074094;28;46288;-75
2022/03/20 01:01:20;;;;;;;;;4.00;2.75;;;;;;;;5076673;28;45327;-74
2022/03/20 01:03:45;;;;;;;;;4.00;2.25;;;;;;;;5074528;28;45375;-74
2022/03/20 01:06:11;;;;;;;;;2.25;2.25;;;;;;;;5073585;28;45302;-73
2022/03/20 01:08:39;;;;;;;;;4.00;3.00;;;;;;;;5073812;28;45470;-75
2022/03/20 01:11:05;;;;;;;;;2.00;2.00;;;;;;;;5074497;28;45348;-74
2022/03/20 01:13:31;;;;;;;;;2.00;2.00;;;;;;;;5075665;28;45380;-74
2022/03/20 01:15:56;;;;;;;;;6.25;3.00;;;;;;;;5075236;28;45391;-75
2022/03/20 01:18:22;;;;;;;;;3.50;2.00;;;;;;;;5075386;28;45277;-74
2022/03/20 01:20:47;;;;;;;;;3.75;1.00;;;;;;;;5075182;28;45446;-75
2022/03/20 01:23:12;;;;;;;;;3.25;2.00;;;;;;;;5076148;28;45391;-74
2022/03/20 01:25:38;;;;;;;;;3.25;3.00;;;;;;;;5076186;28;45707;-75
2022/03/20 01:28:03;;;;;;;;;2.00;2.00;;;;;;;;5073614;28;45431;-73
2022/03/20 01:30:29;;;;;;;;;2.25;2.25;;;;;;;;5074858;28;45489;-74
2022/03/20 01:32:54;;;;;;;;;3.75;2.50;;;;;;;;5073867;28;45373;-75
2022/03/20 01:35:19;;;;;;;;;3.25;2.25;;;;;;;;5075171;28;45540;-75
2022/03/20 01:37:44;;;;;;;;;2.75;2.75;;;;;;;;5075131;28;46035;-74
2022/03/20 01:40:10;;;;;;;;;3.00;2.00;;;;;;;;5075745;28;45440;-75
2022/03/20 01:42:38;;;;;;;;;2.00;2.00;;;;;;;;5074626;28;45517;-76
2022/03/20 01:45:13;;;;;;;;;3.00;1.75;;;;;;;;5075090;28;45390;-75
2022/03/20 01:47:38;;;;;;;;;3.25;2.25;;;;;;;;5075187;28;46101;-73
2022/03/20 01:50:04;;;;;;;;;1.25;1.25;;;;;;;;5074869;28;45410;-74
2022/03/20 01:52:29;;;;;;;;;3.00;2.00;;;;;;;;5075557;28;45678;-74
2022/03/20 01:54:54;;;;;;;;;2.75;2.75;;;;;;;;5075147;28;45528;-75
2022/03/20 01:57:20;;;;;;;;;2.75;2.50;;;;;;;;5074602;28;47170;-75
2022/03/20 01:59:46;;;;;;;;;2.75;2.75;;;;;;;;5074684;27;45299;-75
2022/03/20 02:02:11;;;;;;;;;3.25;3.00;;;;;;;;5055635;28;45295;-76
2022/03/20 02:04:37;;;;;;;;;4.50;3.25;;;;;;;;5074757;28;45267;-75
2022/03/20 02:07:03;;;;;;;;;2.25;2.25;;;;;;;;5075040;28;47160;-75
2022/03/20 02:09:28;;;;;;;;;5.50;3.50;;;;;;;;5074264;28;45372;-75
2022/03/20 02:11:54;;;;;;;;;2.00;2.00;;;;;;;;5074623;28;45358;-75
2022/03/20 02:14:19;;;;;;;;;2.75;2.00;;;;;;;;5074649;28;45431;-75
2022/03/20 02:16:45;;;;;;;;;2.25;2.00;;;;;;;;5074634;28;45607;-74
2022/03/20 02:19:13;;;;;;;;;2.00;2.00;;;;;;;;5074980;28;45441;-75
2022/03/20 02:21:41;;;;;;;;;3.50;1.75;;;;;;;;5074703;28;45676;-74
2022/03/20 02:24:25;;;;;;;;;3.00;3.00;;;;;;;;5074307;28;45552;-74
2022/03/20 02:26:50;;;;;;;;;4.00;3.00;;;;;;;;5074475;28;47620;-76
2022/03/20 02:29:16;;;;;;;;;3.25;3.00;;;;;;;;5074265;28;45241;-75
2022/03/20 02:31:42;;;;;;;;;2.00;2.00;;;;;;;;5056185;28;45396;-74
2022/03/20 02:34:07;;;;;;;;;4.25;2.75;;;;;;;;5074576;28;45444;-73
2022/03/20 02:36:35;;;;;;;;;3.00;3.00;;;;;;;;5074352;28;46022;-75
2022/03/20 02:39:01;;;;;;;;;1.25;1.25;;;;;;;;5074029;28;45370;-74
2022/03/20 02:41:26;;;;;;;;;2.50;2.50;;;;;;;;5074022;28;45427;-75
2022/03/20 02:43:52;;;;;;;;;4.75;3.75;;;;;;;;5059193;28;45344;-74
2022/03/20 02:46:17;;;;;;;;;3.50;3.50;;;;;;;;5078729;28;46971;-74
2022/03/20 02:48:45;;;;;;;;;2.25;2.25;;;;;;;;5077423;28;45267;-74
2022/03/20 02:51:10;;;;;;;;;2.00;2.00;;;;;;;;5077961;28;45469;-75
2022/03/20 02:53:36;;;;;;;;;3.00;2.00;;;;;;;;5078551;27;45467;-74
2022/03/20 02:56:02;;;;;;;;;3.75;3.00;;;;;;;;5078008;28;46344;-74
2022/03/20 02:58:27;;;;;;;;;6.50;3.00;;;;;;;;5077961;28;45410;-75
2022/03/20 03:00:54;;;;;;;;;3.00;3.00;;;;;;;;5078579;28;45259;-74
2022/03/20 03:03:20;;;;;;;;;4.00;4.00;;;;;;;;5077788;28;45486;-74
2022/03/20 03:05:45;;;;;;;;;2.75;2.75;;;;;;;;5077922;28;45970;-75
2022/03/20 03:11:01;;;;;;;;;3.75;3.00;;;;;;;;5062131;27;45548;-74
2022/03/20 03:13:36;;;;;;;;;4.00;4.00;;;;;;;;5077679;28;45489;-75
2022/03/20 03:16:06;;;;;;;;;5.25;3.00;;;;;;;;5077567;28;47293;-75
2022/03/20 03:18:31;;;;;;;;;4.25;4.00;;;;;;;;5076606;28;45635;-74
2022/03/20 03:20:57;;;;;;;;;3.00;3.00;;;;;;;;5077280;27;45458;-74
2022/03/20 03:23:25;;;;;;;;;3.50;3.50;;;;;;;;5077237;28;45658;-75
2022/03/20 03:25:51;;;;;;;;;8.50;6.00;;;;;;;;5060760;27;46190;-75
2022/03/20 03:28:16;;;;;;;;;4.50;3.00;;;;;;;;5077811;28;45453;-75
2022/03/20 03:30:46;;;;;;;;;5.00;3.75;;;;;;;;5076769;28;45553;-73
2022/03/20 03:33:12;;;;;;;;;6.50;5.75;;;;;;;;5076716;28;45456;-73
2022/03/20 03:35:44;;;;;;;;;6.00;3.50;;;;;;;;5076578;28;46342;-75
2022/03/20 03:38:10;;;;;;;;;6.50;5.00;;;;;;;;5077953;27;45497;-74
2022/03/20 03:40:37;;;;;;;;;5.25;4.25;;;;;;;;5077389;28;45374;-74
2022/03/20 03:43:03;;;;;;;;;3.25;3.00;;;;;;;;5075120;28;45303;-75
2022/03/20 03:45:29;;;;;;;;;4.25;4.25;;;;;;;;5076491;28;45505;-75
2022/03/20 03:47:54;;;;;;;;;6.00;5.00;;;;;;;;5076606;27;45512;-76
2022/03/20 03:50:20;;;;;;;;;5.75;4.25;;;;;;;;5077181;28;45368;-74
2022/03/20 03:52:46;;;;;;;;;8.00;5.75;;;;;;;;5058580;28;45317;-74
2022/03/20 03:55:11;;;;;;;;;5.25;5.25;;;;;;;;5076821;28;47140;-75
2022/03/20 03:57:36;;;;;;;;;5.00;5.00;;;;;;;;5076372;28;45392;-75
2022/03/20 04:00:02;;;;;;;;;5.25;5.25;;;;;;;;5076821;28;45225;-75
2022/03/20 04:02:27;;;;;;;;;4.25;4.00;;;;;;;;5077116;28;45399;-75
2022/03/20 04:04:52;;;;;;;;;7.25;5.00;;;;;;;;5077322;28;46318;-74
2022/03/20 04:07:18;;;;;;;;;6.00;5.00;;;;;;;;5073252;27;45417;-73
2022/03/20 04:09:44;;;;;;;;;7.50;6.25;;;;;;;;5077153;28;45393;-75
2022/03/20 04:12:09;;;;;;;;;7.25;5.00;;;;;;;;5076878;28;45201;-75
2022/03/20 04:14:35;;;;;;;;;6.25;5.00;;;;;;;;5076577;28;46234;-75
2022/03/20 04:17:00;;;;;;;;;5.00;5.00;;;;;;;;5076580;28;45378;-75
2022/03/20 04:19:25;;;;;;;;;5.75;5.75;;;;;;;;5076813;28;45422;-75
2022/03/20 04:21:51;;;;;;;;;6.00;6.00;;;;;;;;5076894;28;45509;-74
2022/03/20 04:24:16;;;;;;;;;7.75;6.00;;;;;;;;5076289;28;46101;-75
2022/03/20 04:26:41;;;;;;;;;6.25;6.25;;;;;;;;5076443;28;45469;-74
2022/03/20 04:29:06;;;;;;;;;5.50;5.00;;;;;;;;5076520;28;45461;-73
2022/03/20 04:31:32;;;;;;;;;7.75;5.25;;;;;;;;5076759;28;45560;-74
2022/03/20 04:33:57;;;;;;;;;9.50;7.00;;;;;;;;5077111;28;46067;-74
2022/03/20 04:36:27;;;;;;;;;7.50;7.50;;;;;;;;5076367;28;45393;-74
2022/03/20 04:38:54;;;;;;;;;6.75;5.25;;;;;;;;5076104;28;45496;-73
2022/03/20 04:41:20;;;;;;;;;8.00;8.00;;;;;;;;5076776;28;45432;-73
2022/03/20 04:43:46;;;;;;;;;9.75;6.25;;;;;;;;5076049;28;47061;-74
2022/03/20 04:46:12;;;;;;;;;9.00;9.00;;;;;;;;5077270;28;45343;-74
2022/03/20 04:59:32;;;;;;;;;11.00;8.25;;;;;;;;5076138;28;45628;-73
2022/03/20 05:01:57;;;;;;;;;7.50;6.75;;;;;;;;5076363;28;45380;-73
2022/03/20 05:04:22;;;;;;;;;12.00;10.25;;;;;;;;5076507;28;45301;-74
2022/03/20 05:06:47;;;;;;;;;6.00;5.00;;;;;;;;5075663;28;45472;-75
2022/03/20 05:14:41;;;;;;;;;7.25;7.25;;;;;;;;5075466;28;45755;-74
2022/03/20 05:17:07;;;;;;;;;9.50;5.00;;;;;;;;5075720;28;45508;-74
2022/03/20 05:19:33;;;;;;;;;7.75;6.00;;;;;;;;5075671;28;45513;-74
2022/03/20 05:21:58;;;;;;;;;7.75;7.75;;;;;;;;5076291;28;45286;-73
2022/03/20 05:24:23;;;;;;;;;10.75;8.00;;;;;;;;5075382;28;45493;-75
2022/03/20 05:26:49;;;;;;;;;6.50;6.00;;;;;;;;5075032;28;45421;-74
2022/03/20 05:29:14;;;;;;;;;6.75;5.50;;;;;;;;5075665;28;45529;-74
2022/03/20 05:31:40;;;;;;;;;6.50;5.50;;;;;;;;5075625;28;45504;-74
2022/03/20 05:34:05;;;;;;;;;8.25;5.00;;;;;;;;5076169;28;47054;-73
2022/03/20 05:36:30;;;;;;;;;6.75;4.75;;;;;;;;5075095;28;45498;-73
2022/03/20 05:38:56;;;;;;;;;9.00;7.25;;;;;;;;5074849;28;45445;-74
2022/03/20 05:44:05;;;;;;;;;6.75;6.75;;;;;;;;5060761;28;46309;-74
2022/03/20 05:46:30;;;;;;;;;12.75;10.00;;;;;;;;5074720;28;45527;-75
2022/03/20 05:48:55;;;;;;;;;10.00;8.00;;;;;;;;5075446;28;45425;-73
2022/03/20 05:51:20;;;;;;;;;8.75;6.00;;;;;;;;5074784;28;45452;-72
2022/03/20 05:53:46;;;;;;;;;8.75;6.75;;;;;;;;5075020;28;47280;-74
2022/03/20 05:58:54;;;;;;;;;11.00;9.50;;;;;;;;5059338;28;45512;-75
2022/03/20 06:01:20;;;;;;;;;10.75;9.75;;;;;;;;5075873;28;45387;-74
2022/03/20 06:03:45;;;;;;;;;8.50;8.50;;;;;;;;5074406;28;45406;-75
2022/03/20 06:06:10;;;;;;;;;10.75;10.75;;;;;;;;5074581;28;45415;-74
2022/03/20 06:08:35;;;;;;;;;6.75;6.75;;;;;;;;5074291;28;45423;-75
2022/03/20 06:11:01;;;;;;;;;14.00;8.50;;;;;;;;5074744;28;45433;-73
2022/03/20 06:13:27;;;;;;;;;9.25;9.25;;;;;;;;5075023;28;46438;-74
2022/03/20 06:15:52;;;;;;;;;9.00;7.25;;;;;;;;5075171;27;45465;-75
2022/03/20 06:18:17;;;;;;;;;7.00;6.50;;;;;;;;5073975;28;45337;-75
2022/03/20 06:20:43;;;;;;;;;8.50;7.50;;;;;;;;5074307;28;45302;-74
2022/03/20 06:23:08;;;;;;;;;12.25;10.00;;;;;;;;5074360;28;46131;-74
2022/03/20 06:25:33;;;;;;;;;12.50;8.50;;;;;;;;5074554;28;45493;-74
2022/03/20 06:28:00;;;;;;;;;9.00;7.25;;;;;;;;5075079;28;45338;-73
2022/03/20 06:30:26;;;;;;;;;8.00;8.00;;;;;;;;5074234;28;45644;-75
2022/03/20 06:32:52;;;;;;;;;11.25;10.00;;;;;;;;5074287;28;46243;-75
2022/03/20 06:35:18;;;;;;;;;8.25;7.25;;;;;;;;5074673;28;45464;-75
2022/03/20 06:37:45;;;;;;;;;9.25;8.50;;;;;;;;5074557;28;45483;-75
2022/03/20 06:40:11;;;;;;;;;14.75;12.25;;;;;;;;5074877;28;45475;-74
2022/03/20 06:42:37;;;;;;;;;10.00;8.25;;;;;;;;5073808;28;45949;-76
2022/03/20 06:45:03;;;;;;;;;10.50;10.50;;;;;;;;5073848;28;45396;-74
2022/03/20 06:47:32;;;;;;;;;10.25;7.25;;;;;;;;5073911;28;45433;-74
2022/03/20 06:49:57;;;;;;;;;8.50;8.50;;;;;;;;5074071;28;45582;-74
2022/03/20 06:52:22;;;;;;;;;15.00;13.00;;;;;;;;5074481;28;47259;-74
2022/03/20 06:54:50;;;;;;;;;15.50;13.50;;;;;;;;5073491;28;45319;-75
2022/03/20 06:57:19;;;;;;;;;23.25;18.00;;;;;;;;5073841;28;45481;-75
2022/03/20 06:59:44;;;;;;;;;16.25;13.00;;;;;;;;5074048;28;45454;-81
2022/03/20 07:02:10;;;;;;;;;13.00;13.00;;;;;;;;5053503;28;47184;-81
2022/03/20 07:04:35;;;;;;;;;11.75;10.75;;;;;;;;5075219;28;45789;-82
2022/03/20 07:07:01;;;;;;;;;14.25;12.25;;;;;;;;5074594;28;45695;-80
2022/03/20 07:09:27;;;;;;;;;9.00;8.75;;;;;;;;5073951;28;45506;-80
2022/03/20 07:11:52;;;;;;;;;11.25;9.25;;;;;;;;5073633;28;46141;-75
2022/03/20 07:14:19;;;;;;;;;19.25;14.00;;;;;;;;5074003;28;45307;-76
2022/03/20 07:16:44;;;;;;;;;11.75;11.75;;;;;;;;5074087;28;45513;-76
2022/03/20 07:19:10;;;;;;;;;12.25;12.25;;;;;;;;5074451;28;45491;-77
2022/03/20 07:21:35;;;;;;;;;14.00;14.00;;;;;;;;5073452;28;46809;-77
2022/03/20 07:24:01;;;;;;;;;15.75;14.75;;;;;;;;5073208;28;45292;-76
2022/03/20 07:31:54;;;;;;;;;18.00;14.25;;;;;;;;5061461;28;45744;-78
2022/03/20 07:34:20;;;;;;;;;13.75;13.75;;;;;;;;5078050;28;45828;-79
2022/03/20 07:36:45;;;;;;;;;17.00;14.25;;;;;;;;5077131;28;45533;-80
2022/03/20 07:39:11;;;;;;;;;18.00;14.00;;;;;;;;5076382;28;45377;-79
2022/03/20 07:41:36;;;;;;;;;20.25;14.75;;;;;;;;5077023;28;45404;-77
2022/03/20 07:44:01;;;;;;;;;25.75;21.50;;;;;;;;5077409;28;45548;-79
2022/03/20 07:46:27;;;;;;;;;15.25;15.00;;;;;;;;5077573;28;45508;-80
2022/03/20 07:48:52;;;;;;;;;15.00;13.75;;;;;;;;5076720;28;45484;-79
2022/03/20 07:51:20;;;;;;;;;17.75;17.50;;;;;;;;5076686;28;47153;-78
2022/03/20 07:53:45;;;;;;;;;14.25;12.25;;;;;;;;5075858;28;45497;-76
2022/03/20 07:56:10;;;;;;;;;20.25;17.00;;;;;;;;5076755;28;45378;-76
2022/03/20 07:58:35;;;;;;;;;18.75;16.00;;;;;;;;5076834;28;45418;-78
2022/03/20 08:01:00;;;;;;;;;21.00;18.75;;;;;;;;5076748;28;45430;-77
2022/03/20 08:03:26;;;;;;;;;20.25;20.25;;;;;;;;5077328;28;45496;-78
2022/03/20 08:05:51;;;;;;;;;21.50;19.50;;;;;;;;5076999;28;45565;-77
2022/03/20 08:08:16;;;;;;;;;29.00;23.50;;;;;;;;5076034;28;45302;-78
2022/03/20 08:10:42;;;;;;;;;22.50;21.75;;;;;;;;5076528;28;46138;-75
2022/03/20 08:13:10;;;;;;;;;21.75;21.75;;;;;;;;5077201;28;45512;-77
2022/03/20 08:15:35;;;;;;;;;26.25;22.25;;;;;;;;5076560;27;45652;-78
2022/03/20 08:18:00;;;;;;;;;23.75;20.50;;;;;;;;5056708;28;45438;-77
2022/03/20 08:20:27;;;;;;;;;23.00;20.50;;;;;;;;5076454;28;46089;-77
2022/03/20 08:22:52;;;;;;;;;24.00;22.25;;;;;;;;5060081;27;45574;-77
2022/03/20 08:25:17;;;;;;;;;23.75;22.50;;;;;;;;5077331;28;45244;-76
2022/03/20 08:27:47;;;;;;;;;24.00;22.50;;;;;;;;5075928;28;45521;-79
2022/03/20 08:30:15;;;;;;;;;20.75;19.75;;;;;;;;5075852;28;46253;-77
2022/03/20 08:32:40;;;;;;;;;20.00;18.00;;;;;;;;5076137;28;45640;-77
2022/03/20 08:35:06;;;;;;;;;24.50;21.25;;;;;;;;5075825;28;45239;-77
2022/03/20 08:37:32;;;;;;;;;24.75;22.00;;;;;;;;5057509;28;45409;-77
2022/03/20 08:39:57;;;;;;;;;21.00;21.00;;;;;;;;5076227;28;47242;-78
2022/03/20 08:42:23;;;;;;;;;30.00;27.50;;;;;;;;5074880;28;45584;-78
2022/03/20 08:44:50;;;;;;;;;26.25;23.75;;;;;;;;5074607;28;45536;-75
2022/03/20 08:47:16;;;;;;;;;23.50;20.25;;;;;;;;5075882;28;45275;-77
2022/03/20 08:49:41;;;;;;;;;27.50;23.50;;;;;;;;5074937;28;45358;-77
2022/03/20 08:52:06;;;;;;;;;27.25;27.25;;;;;;;;5061852;28;45374;-76
2022/03/20 08:54:32;;;;;;;;;26.50;23.50;;;;;;;;5066524;28;45458;-77
2022/03/20 08:56:57;;;;;;;;;29.25;22.00;;;;;;;;5069821;28;45526;-76
2022/03/20 08:59:22;;;;;;;;;26.50;24.00;;;;;;;;5064803;28;46431;-81
2022/03/20 09:01:47;;;;;;;;;24.50;19.25;;;;;;;;5073963;28;45283;-79
2022/03/20 09:04:12;;;;;;;;;28.50;27.00;;;;;;;;5063537;28;45567;-81
2022/03/20 09:06:43;;;;;;;;;28.00;26.00;;;;;;;;5065788;28;45397;-78
2022/03/20 09:09:08;;;;;;;;;34.00;30.00;;;;;;;;5071868;27;46298;-77
2022/03/20 09:11:33;;;;;;;;;20.75;20.75;;;;;;;;5072651;28;45401;-77
2022/03/20 09:14:14;;;;;;;;;31.00;28.75;;;;;;;;5045359;28;45236;-77
2022/03/20 09:19:29;;;;;;;;;32.50;30.75;;;;;;;;5009687;28;46025;-76
2022/03/20 09:21:55;;;;;;;;;31.00;29.75;;;;;;;;5002560;28;45404;-76
2022/03/20 09:27:15;;;;;;;;;31.00;29.25;;;;;;;;4950143;28;45499;-77
2022/03/20 09:29:44;;;;;;;;;27.00;25.50;;;;;;;;4949742;28;46304;-73
2022/03/20 09:32:10;;;;;;;;;32.00;29.75;;;;;;;;4950965;28;45692;-76
2022/03/20 09:34:38;;;;;;;;;29.00;27.00;;;;;;;;4952676;28;45437;-74
2022/03/20 09:37:10;;;;;;;;;36.00;29.00;;;;;;;;4952309;28;45563;-75
2022/03/20 09:39:36;;;;;;;;;35.00;30.50;;;;;;;;4949703;28;45429;-74
2022/03/20 09:45:21;;;;;;;;;44.00;32.25;;;;;;;;4950681;28;46876;-74
2022/03/20 09:47:47;;;;;;;;;26.00;23.75;;;;;;;;4953403;28;45591;-75
2022/03/20 09:50:38;;;;;;;;;24.50;22.50;;;;;;;;4953662;28;45582;-74
2022/03/20 09:53:04;;;;;;;;;31.25;28.25;;;;;;;;4938924;28;45505;-76
2022/03/20 09:55:33;;;;;;;;;30.00;26.50;;;;;;;;4938323;28;45400;-78
2022/03/20 09:58:11;;;;;;;;;;;;;;;;;;;;;
2022/03/20 10:00:49;;;;;;;;;35.00;29.25;;;;;;;;4990843;28;75570;-76
2022/03/20 10:03:19;;;;;;;;;29.25;27.00;;;;;;;;4990374;28;45467;-76
2022/03/20 10:06:01;;;;;;;;;26.50;24.25;;;;;;;;5078354;28;45440;-78
2022/03/20 10:08:28;;;;;;;;;33.00;30.50;;;;;;;;5069458;28;45359;-76
2022/03/20 10:11:15;;;;;;;;;31.00;29.00;;;;;;;;5066023;28;46722;-79
2022/03/20 10:14:04;;;;;;;;;29.50;24.75;;;;;;;;5059262;27;45342;-79
2022/03/20 10:16:29;;;;;;;;;33.75;29.00;;;;;;;;5067119;28;45381;-77
2022/03/20 10:18:54;;;;;;;;;25.50;24.00;;;;;;;;5058888;28;45525;-78
2022/03/20 10:21:20;;;;;;;;;28.75;26.75;;;;;;;;5065586;28;47349;-79
2022/03/20 10:23:46;;;;;;;;;25.00;22.50;;;;;;;;5070151;28;45478;-80
2022/03/20 10:26:16;;;;;;;;;28.75;24.50;;;;;;;;5067870;28;45624;-80
2022/03/20 10:28:55;;;;;;;;;41.75;34.25;;;;;;;;5074060;27;45385;-80
2022/03/20 10:31:20;;;;;;;;;25.75;23.00;;;;;;;;5070105;27;47072;-80
2022/03/20 10:34:02;;;;;;;;;25.75;24.00;;;;;;;;5073307;28;45337;-82
2022/03/20 10:36:28;;;;;;;;;29.50;26.50;;;;;;;;5074291;28;45291;-80
2022/03/20 10:38:53;;;;;;;;;24.75;21.00;;;;;;;;5073527;28;45379;-79
2022/03/20 10:41:21;;;;;;;;;29.25;23.75;;;;;;;;5053946;28;46296;-78
2022/03/20 10:43:47;;;;;;;;;22.00;20.25;;;;;;;;5074261;28;45342;-79
2022/03/20 10:46:23;;;;;;;;;25.00;19.75;;;;;;;;5062723;27;45479;-81
2022/03/20 10:48:53;;;;;;;;;28.75;27.25;;;;;;;;5074313;28;45194;-77
2022/03/20 10:51:25;;;;;;;;;41.00;34.00;;;;;;;;5073042;28;47174;-78
2022/03/20 10:53:55;;;;;;;;;18.00;17.00;;;;;;;;5065581;28;45390;-81
2022/03/20 10:56:21;;;;;;;;;22.25;19.50;;;;;;;;5073797;28;45588;-78
2022/03/20 10:58:46;;;;;;;;;23.75;19.75;;;;;;;;5055291;28;45627;-81
2022/03/20 11:01:12;;;;;;;;;18.25;15.75;;;;;;;;5073403;28;46282;-79
2022/03/20 11:03:39;;;;;;;;;22.50;21.00;;;;;;;;5072945;28;45271;-81
2022/03/20 11:06:08;;;;;;;;;18.75;17.50;;;;;;;;5075965;28;45193;-80
2022/03/20 11:08:33;;;;;;;;;18.50;17.50;;;;;;;;5077080;27;45670;-80
2022/03/20 11:10:59;;;;;;;;;30.25;24.25;;;;;;;;5077527;28;46148;-80
2022/03/20 11:13:26;;;;;;;;;19.75;19.50;;;;;;;;5077099;28;45348;-82
2022/03/20 11:15:53;;;;;;;;;23.00;20.50;;;;;;;;5076837;28;45436;-81
2022/03/20 11:18:18;;;;;;;;;25.50;22.75;;;;;;;;5077152;28;45794;-81
2022/03/20 11:20:45;;;;;;;;;21.75;19.75;;;;;;;;5076982;28;45506;-86
2022/03/20 11:23:12;;;;;;;;;17.50;17.50;;;;;;;;5077775;28;45376;-80
2022/03/20 11:25:38;;;;;;;;;12.50;12.25;;;;;;;;5077475;28;45421;-79
2022/03/20 11:28:06;;;;;;;;;19.50;19.00;;;;;;;;5077589;28;45358;-80
2022/03/20 11:30:32;;;;;;;;;18.75;17.25;;;;;;;;5079000;28;46297;-79
2022/03/20 11:33:00;;;;;;;;;15.75;15.50;;;;;;;;5076566;28;45381;-80
2022/03/20 11:35:29;;;;;;;;;18.75;16.00;;;;;;;;5077546;28;45421;-81
2022/03/20 11:37:58;;;;;;;;;20.25;16.00;;;;;;;;5061461;28;45539;-81
2022/03/20 11:40:25;;;;;;;;;15.25;14.00;;;;;;;;5073271;28;46286;-80
2022/03/20 11:43:11;;;;;;;;;12.25;12.25;;;;;;;;5076202;28;45461;-79
2022/03/20 11:45:36;;;;;;;;;19.50;14.00;;;;;;;;5075736;28;45401;-81
2022/03/20 11:48:14;;;;;;;;;17.75;16.50;;;;;;;;5064788;28;45550;-82
2022/03/20 11:50:43;;;;;;;;;17.75;16.00;;;;;;;;5072326;28;46306;-80
2022/03/20 11:53:09;;;;;;;;;20.75;18.50;;;;;;;;5069336;28;45495;-80
2022/03/20 11:55:40;;;;;;;;;14.50;13.50;;;;;;;;5067654;28;45386;-80
2022/03/20 11:58:05;;;;;;;;;14.50;14.50;;;;;;;;5067082;28;45268;-78
2022/03/20 12:00:32;;;;;;;;;18.75;17.50;;;;;;;;5066749;27;46320;-78
2022/03/20 12:03:13;;;;;;;;;13.75;13.75;;;;;;;;5070777;28;45603;-78
2022/03/20 12:05:41;;;;;;;;;17.00;15.25;;;;;;;;5072352;28;45389;-79
2022/03/20 12:08:06;;;;;;;;;11.25;11.25;;;;;;;;5069531;28;45488;-78
2022/03/20 12:10:34;;;;;;;;;10.50;9.25;;;;;;;;5067204;28;46241;-80
2022/03/20 12:13:16;;;;;;;;;16.50;15.00;;;;;;;;5067553;27;45449;-76
2022/03/20 12:15:43;;;;;;;;;16.00;15.00;;;;;;;;5066856;28;45415;-77
2022/03/20 12:18:10;;;;;;;;;16.25;13.75;;;;;;;;5068005;28;45323;-79
2022/03/20 12:20:48;;;;;;;;;11.25;11.00;;;;;;;;5071141;27;46999;-80
2022/03/20 12:23:32;;;;;;;;;19.00;16.25;;;;;;;;5069935;28;45528;-75
2022/03/20 12:25:57;;;;;;;;;14.00;12.50;;;;;;;;5060356;28;45360;-80
2022/03/20 12:28:29;;;;;;;;;12.50;11.75;;;;;;;;5068280;28;45380;-81
2022/03/20 12:30:55;;;;;;;;;15.25;13.75;;;;;;;;5067683;28;46634;-80
2022/03/20 12:33:22;;;;;;;;;12.75;12.00;;;;;;;;5067493;28;45275;-81
2022/03/20 12:35:47;;;;;;;;;14.00;14.00;;;;;;;;5072004;27;45498;-80
2022/03/20 12:38:31;;;;;;;;;13.75;13.75;;;;;;;;5051847;28;45410;-79
2022/03/20 12:41:04;;;;;;;;;17.50;16.75;;;;;;;;5057357;27;47486;-83
2022/03/20 12:43:30;;;;;;;;;14.50;12.25;;;;;;;;5064475;28;45339;-81
2022/03/20 12:45:57;;;;;;;;;15.25;14.25;;;;;;;;5067330;28;45230;-80
2022/03/20 12:48:22;;;;;;;;;16.00;15.00;;;;;;;;5075228;28;45346;-79
2022/03/20 12:50:49;;;;;;;;;19.75;17.75;;;;;;;;5064831;28;47294;-80
2022/03/20 12:53:16;;;;;;;;;17.00;15.25;;;;;;;;5069832;28;49634;-78
2022/03/20 12:55:42;;;;;;;;;18.25;18.25;;;;;;;;5066432;28;45527;-79
2022/03/20 12:58:14;;;;;;;;;14.00;13.50;;;;;;;;5066981;28;46834;-81
2022/03/20 13:00:39;;;;;;;;;16.50;14.25;;;;;;;;5066179;28;46904;-77
2022/03/20 13:03:07;;;;;;;;;18.00;18.00;;;;;;;;5071514;28;45449;-90
2022/03/20 13:05:40;;;;;;;;;24.00;22.00;;;;;;;;5073836;28;45504;-89
2022/03/20 13:08:06;;;;;;;;;16.00;15.00;;;;;;;;5085062;27;45652;-88
2022/03/20 13:10:37;;;;;;;;;15.00;12.25;;;;;;;;5067901;28;47262;-85
2022/03/20 13:13:03;;;;;;;;;15.00;14.50;;;;;;;;5066209;28;45457;-87
2022/03/20 13:15:29;;;;;;;;;15.00;14.25;;;;;;;;5075793;28;45726;-85
2022/03/20 13:17:55;;;;;;;;;15.50;14.00;;;;;;;;5076035;28;45290;-86
2022/03/20 13:20:25;;;;;;;;;15.50;14.25;;;;;;;;5077590;28;45582;-86
2022/03/20 13:22:51;;;;;;;;;17.00;17.00;;;;;;;;5066975;28;45368;-86
2022/03/20 13:25:18;;;;;;;;;18.00;16.50;;;;;;;;5077375;28;45424;-87
2022/03/20 13:27:46;;;;;;;;;17.00;16.25;;;;;;;;5067048;28;45551;-87
2022/03/20 13:30:12;;;;;;;;;15.25;14.00;;;;;;;;5069575;28;46036;-85
2022/03/20 13:32:37;;;;;;;;;13.50;12.75;;;;;;;;5074547;28;45324;-87
2022/03/20 13:35:02;;;;;;;;;14.00;13.75;;;;;;;;5075165;28;45547;-85
2022/03/20 13:37:27;;;;;;;;;14.00;12.75;;;;;;;;5074198;28;45426;-85
2022/03/20 13:39:57;;;;;;;;;17.50;17.50;;;;;;;;5074943;28;46340;-83
2022/03/20 13:42:23;;;;;;;;;17.75;17.75;;;;;;;;5048771;28;45319;-84
2022/03/20 13:44:52;;;;;;;;;20.00;15.50;;;;;;;;5074959;28;45500;-85
2022/03/20 13:47:18;;;;;;;;;19.00;17.25;;;;;;;;5053894;28;45613;-82
2022/03/20 13:49:47;;;;;;;;;14.50;13.75;;;;;;;;5073210;28;46632;-83
2022/03/20 13:55:19;;;;;;;;;16.75;15.00;;;;;;;;5016716;28;45552;-84
2022/03/20 13:57:48;;;;;;;;;16.00;15.00;;;;;;;;5013417;28;45466;-85
2022/03/20 14:00:14;;;;;;;;;12.50;12.00;;;;;;;;5013663;28;47269;-85
2022/03/20 14:02:41;;;;;;;;;16.50;15.00;;;;;;;;5010962;28;45456;-83
2022/03/20 14:05:10;;;;;;;;;10.50;10.50;;;;;;;;5013512;28;45531;-85
2022/03/20 14:07:38;;;;;;;;;12.75;11.50;;;;;;;;5015331;28;45557;-86
2022/03/20 14:10:20;;;;;;;;;13.50;12.00;;;;;;;;5014856;28;45485;-86
2022/03/20 14:12:45;;;;;;;;;9.75;9.75;;;;;;;;5027502;28;45544;-88
2022/03/20 14:15:11;;;;;;;;;14.50;12.50;;;;;;;;5020172;28;45345;-88
2022/03/20 14:17:40;;;;;;;;;12.00;9.75;;;;;;;;5007234;28;45371;-86
2022/03/20 14:20:10;;;;;;;;;11.50;9.25;;;;;;;;5025386;28;46300;-82
2022/03/20 14:22:46;;;;;;;;;9.25;8.75;;;;;;;;4996302;28;45469;-82
2022/03/20 14:25:28;;;;;;;;;15.25;13.00;;;;;;;;4997627;28;45474;-82
2022/03/20 14:27:57;;;;;;;;;5.50;4.25;;;;;;;;5012674;28;45475;-82
2022/03/20 14:41:26;;;;;;;;;18.75;17.25;;;;;;;;5075411;28;45408;-82
2022/03/20 14:44:06;;;;;;;;;9.75;9.75;;;;;;;;5074234;28;45314;-85
2022/03/20 14:46:32;;;;;;;;;18.00;14.00;;;;;;;;5071306;28;45420;-86
2022/03/20 14:48:57;;;;;;;;;10.25;10.00;;;;;;;;5056223;28;45371;-86
2022/03/20 14:51:22;;;;;;;;;9.50;9.50;;;;;;;;5074622;28;46068;-84
2022/03/20 14:53:48;;;;;;;;;11.75;10.25;;;;;;;;5076923;28;45412;-85
2022/03/20 14:56:15;;;;;;;;;11.75;11.00;;;;;;;;5074801;28;45442;-86
2022/03/20 14:58:40;;;;;;;;;15.00;13.25;;;;;;;;5074422;28;45331;-86
2022/03/20 15:01:07;;;;;;;;;13.25;12.50;;;;;;;;5074958;28;45371;-85
2022/03/20 15:03:34;;;;;;;;;13.75;12.75;;;;;;;;5074688;28;45389;-84
2022/03/20 15:06:02;;;;;;;;;10.50;10.50;;;;;;;;5074481;28;45483;-85
2022/03/20 15:11:26;;;;;;;;;15.25;13.00;;;;;;;;5060031;28;45492;-85
2022/03/20 15:13:55;;;;;;;;;16.25;15.00;;;;;;;;5054838;28;45390;-84
2022/03/20 15:16:21;;;;;;;;;10.75;10.75;;;;;;;;5075345;28;45526;-86
2022/03/20 15:18:48;;;;;;;;;15.25;12.25;;;;;;;;5073743;28;45617;-80
2022/03/20 15:21:13;;;;;;;;;26.50;24.00;;;;;;;;5073245;28;46274;-80
2022/03/20 15:23:38;;;;;;;;;14.75;13.75;;;;;;;;5072657;28;45398;-81